Time;durP1;ratioP1;P1;durP2;ratioP2;P2;SDS_P1;SDS_P2;PMS_P1;PMS_P2;Temp;Humidity;BMP_temperature;BMP_pressure;BME280_temperature;BME280_humidity;BME280_pressure;Samples;Min_cycle;Max_cycle;Signal;HPM_P1;HPM_P2
2021/03/27 00:03:28;;;;;;;90.63;36.47;;;;;;;;;;8290916;28;20398;-69
2021/03/27 00:07:57;;;;;;;83.05;37.55;;;;;;;;;;8274017;28;20465;-69
2021/03/27 00:12:26;;;;;;;83.30;36.03;;;;;;;;;;8292042;28;20063;-71
2021/03/27 00:16:56;;;;;;;101.82;38.15;;;;;;;;;;8291579;28;20402;-69
2021/03/27 00:21:17;;;;;;;103.70;38.08;;;;;;;;;;8290443;28;20439;-69
2021/03/27 00:25:42;;;;;;;91.35;35.10;;;;;;;;;;8289079;28;20386;-69
2021/03/27 00:29:52;;;;;;;90.72;36.30;;;;;;;;;;8291103;28;20337;-69
2021/03/27 00:34:03;;;;;;;90.20;36.67;;;;;;;;;;8275286;28;20379;-69
2021/03/27 00:38:15;;;;;;;90.82;38.50;;;;;;;;;;8289443;28;20075;-69
2021/03/27 00:42:31;;;;;;;91.72;37.55;;;;;;;;;;8291240;28;20501;-69
2021/03/27 00:46:38;;;;;;;81.75;33.78;;;;;;;;;;8288699;28;20474;-68
2021/03/27 00:51:27;;;;;;;93.03;36.38;;;;;;;;;;8290121;28;20440;-69
2021/03/27 00:55:46;;;;;;;;;;;;;;;;;;8305518;28;20478;-69
2021/03/27 01:00:27;;;;;;;88.07;35.58;;;;;;;;;;8288660;28;20335;-69
2021/03/27 01:04:51;;;;;;;78.82;33.47;;;;;;;;;;8311960;28;20378;-69
2021/03/27 01:09:27;;;;;;;90.47;35.25;;;;;;;;;;8276407;28;20048;-69
2021/03/27 01:14:17;;;;;;;84.35;34.38;;;;;;;;;;8271176;28;20467;-69
2021/03/27 01:18:33;;;;;;;91.35;36.03;;;;;;;;;;8322307;28;20352;-68
2021/03/27 01:22:38;;;;;;;88.07;36.42;;;;;;;;;;8322171;28;20378;-68
2021/03/27 01:27:05;;;;;;;86.65;35.65;;;;;;;;;;8321870;28;20447;-69
2021/03/27 01:31:17;;;;;;;89.13;36.17;;;;;;;;;;8323606;28;20343;-69
2021/03/27 01:35:58;;;;;;;90.78;35.70;;;;;;;;;;8322014;28;20362;-69
2021/03/27 01:40:32;;;;;;;96.22;36.95;;;;;;;;;;8322413;28;20466;-70
2021/03/27 01:45:07;;;;;;;84.10;32.42;;;;;;;;;;8306786;28;20040;-69
2021/03/27 01:49:34;;;;;;;80.55;33.08;;;;;;;;;;8320170;28;20463;-69
2021/03/27 01:54:01;;;;;;;76.10;31.92;;;;;;;;;;8321106;28;20496;-68
2021/03/27 01:58:24;;;;;;;73.28;33.42;;;;;;;;;;8321090;28;20397;-69
2021/03/27 02:03:05;;;;;;;76.05;32.03;;;;;;;;;;8324135;28;20366;-70
2021/03/27 02:07:51;;;;;;;74.40;32.22;;;;;;;;;;8323016;28;20375;-70
2021/03/27 02:12:08;;;;;;;70.85;29.58;;;;;;;;;;8262450;28;20111;-69
2021/03/27 02:16:31;;;;;;;71.25;29.70;;;;;;;;;;8328334;28;20397;-69
2021/03/27 02:21:05;;;;;;;71.47;29.50;;;;;;;;;;8330026;28;20359;-68
2021/03/27 02:26:03;;;;;;;72.90;28.45;;;;;;;;;;8328071;28;20052;-70
2021/03/27 02:30:19;;;;;;;68.30;28.08;;;;;;;;;;8240142;28;20463;-69
2021/03/27 02:34:48;;;;;;;65.05;26.88;;;;;;;;;;8327166;28;20666;-69
2021/03/27 02:39:06;;;;;;;62.33;26.98;;;;;;;;;;8326028;28;20141;-69
2021/03/27 02:43:28;;;;;;;57.33;25.53;;;;;;;;;;8325229;28;20447;-69
2021/03/27 02:48:30;;;;;;;57.58;26.70;;;;;;;;;;8309997;28;20488;-70
2021/03/27 02:53:18;;;;;;;56.72;26.60;;;;;;;;;;8262397;28;20482;-69
2021/03/27 02:57:39;;;;;;;59.53;26.30;;;;;;;;;;8327407;28;20494;-69
2021/03/27 03:02:08;;;;;;;56.20;24.85;;;;;;;;;;8326782;28;20420;-69
2021/03/27 03:06:28;;;;;;;62.15;28.02;;;;;;;;;;8310061;28;20356;-68
2021/03/27 03:10:48;;;;;;;72.20;28.42;;;;;;;;;;8326349;28;20470;-69
2021/03/27 03:15:08;;;;;;;45.28;21.95;;;;;;;;;;8325630;28;20359;-68
2021/03/27 03:19:27;;;;;;;50.60;22.55;;;;;;;;;;8325976;28;20461;-68
2021/03/27 03:23:42;;;;;;;57.55;25.80;;;;;;;;;;8324520;28;20405;-69
2021/03/27 03:28:14;;;;;;;50.45;25.25;;;;;;;;;;8325628;28;20455;-69
2021/03/27 03:32:48;;;;;;;54.78;25.20;;;;;;;;;;8327022;28;20476;-69
2021/03/27 03:37:35;;;;;;;61.08;28.33;;;;;;;;;;8325579;28;20489;-68
2021/03/27 03:42:06;;;;;;;57.60;26.10;;;;;;;;;;8323487;28;20467;-68
2021/03/27 03:46:31;;;;;;;55.42;24.17;;;;;;;;;;8323528;28;20447;-69
2021/03/27 03:51:06;;;;;;;48.90;24.10;;;;;;;;;;8325014;28;20488;-69
2021/03/27 03:55:36;;;;;;;53.85;24.50;;;;;;;;;;8323907;28;20479;-69
2021/03/27 03:59:52;;;;;;;47.60;24.52;;;;;;;;;;8324719;28;20048;-69
2021/03/27 04:04:08;;;;;;;51.03;24.60;;;;;;;;;;8325337;28;20393;-68
2021/03/27 04:08:52;;;;;;;54.45;26.40;;;;;;;;;;8290907;28;20370;-69
2021/03/27 04:13:23;;;;;;;64.32;28.20;;;;;;;;;;8322945;28;20075;-69
2021/03/27 04:17:47;;;;;;;57.88;26.02;;;;;;;;;;8322697;28;20485;-69
2021/03/27 04:22:17;;;;;;;55.20;23.83;;;;;;;;;;8323552;28;20356;-69
2021/03/27 04:26:37;;;;;;;56.75;25.08;;;;;;;;;;8322160;28;20332;-68
2021/03/27 04:31:02;;;;;;;55.80;23.88;;;;;;;;;;8323353;28;20075;-69
2021/03/27 04:35:20;;;;;;;48.03;22.77;;;;;;;;;;8323374;28;20367;-69
2021/03/27 04:39:51;;;;;;;52.72;23.02;;;;;;;;;;8324128;28;20095;-68
2021/03/27 04:44:07;;;;;;;47.58;24.00;;;;;;;;;;8323184;28;20109;-69
2021/03/27 04:48:41;;;;;;;50.83;23.13;;;;;;;;;;8321661;28;20386;-69
2021/03/27 04:53:13;;;;;;;56.10;24.58;;;;;;;;;;8323431;28;20470;-69
2021/03/27 04:57:47;;;;;;;51.75;22.85;;;;;;;;;;8321222;28;20462;-70
2021/03/27 05:02:05;;;;;;;49.65;21.95;;;;;;;;;;8325649;28;20446;-69
2021/03/27 05:06:24;;;;;;;52.60;21.30;;;;;;;;;;8324536;28;20435;-70
2021/03/27 05:11:21;;;;;;;49.53;21.60;;;;;;;;;;8322976;28;20435;-69
2021/03/27 05:15:48;;;;;;;52.83;22.20;;;;;;;;;;8277623;28;20481;-71
2021/03/27 05:20:24;;;;;;;55.50;21.33;;;;;;;;;;8321546;28;20060;-68
2021/03/27 05:24:59;;;;;;;43.92;20.10;;;;;;;;;;8321413;28;20055;-70
2021/03/27 05:29:13;;;;;;;47.17;21.75;;;;;;;;;;8322513;28;20405;-69
2021/03/27 05:33:41;;;;;;;56.30;22.13;;;;;;;;;;8324281;28;20074;-69
2021/03/27 05:38:08;;;;;;;41.67;20.15;;;;;;;;;;8322961;28;20056;-69
2021/03/27 05:42:59;;;;;;;44.15;20.17;;;;;;;;;;8329388;28;20401;-69
2021/03/27 05:47:29;;;;;;;37.90;19.13;;;;;;;;;;8326992;28;20370;-69
2021/03/27 05:52:11;;;;;;;36.72;18.98;;;;;;;;;;8329166;28;20471;-70
2021/03/27 05:56:48;;;;;;;37.40;19.00;;;;;;;;;;8327157;28;20066;-69
2021/03/27 06:01:41;;;;;;;36.40;18.02;;;;;;;;;;8328237;28;20355;-70
2021/03/27 06:06:26;;;;;;;31.13;16.83;;;;;;;;;;8329949;28;20360;-71
2021/03/27 06:10:39;;;;;;;31.80;16.63;;;;;;;;;;8328478;28;20063;-69
2021/03/27 06:15:14;;;;;;;31.75;17.58;;;;;;;;;;8328202;28;20386;-70
2021/03/27 06:20:26;;;;;;;31.77;16.63;;;;;;;;;;8329091;28;20410;-70
2021/03/27 06:24:49;;;;;;;29.45;15.13;;;;;;;;;;8277472;28;20502;-70
2021/03/27 06:29:43;;;;;;;33.38;15.82;;;;;;;;;;8327758;28;20446;-70
2021/03/27 06:34:19;;;;;;;30.15;16.25;;;;;;;;;;8328265;28;20381;-70
2021/03/27 06:39:00;;;;;;;32.40;17.27;;;;;;;;;;8325772;28;20052;-69
2021/03/27 06:43:40;;;;;;;31.17;17.13;;;;;;;;;;8325952;28;20486;-69
2021/03/27 06:48:31;;;;;;;27.52;14.32;;;;;;;;;;8325956;28;20455;-70
2021/03/27 06:52:50;;;;;;;23.85;14.13;;;;;;;;;;8326504;28;20450;-70
2021/03/27 06:57:39;;;;;;;24.48;13.32;;;;;;;;;;8326604;28;20459;-70
2021/03/27 07:02:35;;;;;;;24.63;13.48;;;;;;;;;;8325484;28;20641;-69
2021/03/27 07:07:17;;;;;;;22.27;12.40;;;;;;;;;;8294656;28;20356;-70
2021/03/27 07:12:22;;;;;;;21.05;11.57;;;;;;;;;;8326155;28;20103;-70
2021/03/27 07:16:37;;;;;;;20.15;11.85;;;;;;;;;;8315859;28;20435;-70
2021/03/27 07:21:05;;;;;;;24.50;13.07;;;;;;;;;;8324265;28;20447;-70
2021/03/27 07:25:51;;;;;;;20.85;11.65;;;;;;;;;;8325838;28;20609;-70
2021/03/27 07:30:14;;;;;;;21.57;11.97;;;;;;;;;;8322752;28;20493;-69
2021/03/27 07:35:23;;;;;;;16.77;9.40;;;;;;;;;;8324754;28;20071;-69
2021/03/27 07:39:42;;;;;;;27.33;9.57;;;;;;;;;;8227272;28;20366;-69
2021/03/27 07:44:05;;;;;;;22.63;9.82;;;;;;;;;;8324516;28;20363;-69
2021/03/27 07:48:56;;;;;;;20.23;10.20;;;;;;;;;;8323173;28;20378;-68
2021/03/27 07:53:31;;;;;;;18.42;9.60;;;;;;;;;;8308753;28;20443;-70
2021/03/27 07:58:14;;;;;;;24.25;9.63;;;;;;;;;;8326638;28;20466;-69
2021/03/27 08:02:25;;;;;;;22.88;10.27;;;;;;;;;;8322038;28;20072;-69
2021/03/27 08:06:53;;;;;;;23.33;10.07;;;;;;;;;;8323828;28;20405;-70
2021/03/27 08:11:15;;;;;;;25.80;11.80;;;;;;;;;;8307026;28;20422;-69
2021/03/27 08:15:50;;;;;;;19.60;10.52;;;;;;;;;;8325852;28;20386;-69
2021/03/27 08:20:20;;;;;;;19.52;9.25;;;;;;;;;;8313339;28;20459;-70
2021/03/27 08:25:23;;;;;;;22.45;10.98;;;;;;;;;;8324152;28;20048;-69
2021/03/27 08:29:42;;;;;;;19.92;9.40;;;;;;;;;;8308990;28;20435;-69
2021/03/27 08:34:01;;;;;;;27.92;14.15;;;;;;;;;;8321131;28;20044;-69
2021/03/27 08:38:25;;;;;;;23.45;11.63;;;;;;;;;;8323895;28;20447;-69
2021/03/27 08:43:19;;;;;;;17.70;10.07;;;;;;;;;;8323860;28;20366;-70
2021/03/27 08:48:06;;;;;;;22.88;9.65;;;;;;;;;;8322933;28;20367;-68
2021/03/27 08:52:51;;;;;;;20.88;9.88;;;;;;;;;;8323894;28;20882;-69
2021/03/27 08:57:45;;;;;;;20.45;10.25;;;;;;;;;;8321336;28;20466;-69
2021/03/27 09:02:30;;;;;;;24.70;12.05;;;;;;;;;;8323123;28;20474;-69
2021/03/27 09:07:17;;;;;;;19.73;9.43;;;;;;;;;;8323377;28;20481;-68
2021/03/27 09:11:46;;;;;;;21.17;10.45;;;;;;;;;;8322675;28;20382;-68
2021/03/27 09:16:28;;;;;;;17.88;10.07;;;;;;;;;;8324784;28;20051;-70
2021/03/27 09:21:26;;;;;;;22.88;11.75;;;;;;;;;;8330280;28;20374;-68
2021/03/27 09:26:16;;;;;;;15.98;8.70;;;;;;;;;;8329306;28;20442;-69
2021/03/27 09:31:26;;;;;;;16.40;8.15;;;;;;;;;;8328988;28;20450;-69
2021/03/27 09:35:47;;;;;;;23.42;11.00;;;;;;;;;;8260935;28;20078;-68
2021/03/27 09:40:16;;;;;;;36.95;13.10;;;;;;;;;;8312262;28;20469;-69
2021/03/27 09:44:40;;;;;;;27.48;10.48;;;;;;;;;;8327944;28;20463;-70
2021/03/27 09:49:31;;;;;;;50.63;15.30;;;;;;;;;;8328782;28;20475;-69
2021/03/27 09:54:02;;;;;;;31.23;11.65;;;;;;;;;;8329055;28;20404;-69
2021/03/27 09:59:00;;;;;;;31.10;9.32;;;;;;;;;;8327958;28;20442;-69
2021/03/27 10:03:29;;;;;;;29.08;9.15;;;;;;;;;;8329149;28;20438;-69
2021/03/27 10:07:51;;;;;;;79.22;14.52;;;;;;;;;;8328892;28;20475;-69
2021/03/27 10:12:09;;;;;;;57.75;12.98;;;;;;;;;;8328233;28;20401;-69
2021/03/27 10:16:38;;;;;;;27.60;9.25;;;;;;;;;;8328142;28;20498;-70
2021/03/27 10:21:29;;;;;;;23.13;10.27;;;;;;;;;;8326571;28;20401;-69
2021/03/27 10:25:40;;;;;;;17.65;7.63;;;;;;;;;;8266761;28;20484;-68
2021/03/27 10:30:05;;;;;;;18.27;7.53;;;;;;;;;;8326065;28;20458;-70
2021/03/27 10:34:38;;;;;;;12.55;6.05;;;;;;;;;;8326977;28;20512;-70
2021/03/27 10:39:13;;;;;;;26.15;8.48;;;;;;;;;;8325459;28;20504;-69
2021/03/27 10:43:50;;;;;;;42.72;9.18;;;;;;;;;;8326313;28;20501;-69
2021/03/27 10:48:03;;;;;;;;;;;;;;;;;;8325718;28;20459;-70
2021/03/27 10:53:25;;;;;;;79.18;11.32;;;;;;;;;;8326668;28;20326;-69
2021/03/27 10:57:51;;;;;;;73.55;11.32;;;;;;;;;;8191343;28;20472;-69
2021/03/27 11:02:43;;;;;;;58.03;9.60;;;;;;;;;;8242798;28;20457;-69
2021/03/27 11:07:34;;;;;;;17.42;6.22;;;;;;;;;;8328203;28;20355;-69
2021/03/27 11:12:06;;;;;;;37.55;7.95;;;;;;;;;;8325753;28;20486;-69
2021/03/27 11:16:29;;;;;;;23.88;7.30;;;;;;;;;;8324457;28;20063;-69
2021/03/27 11:21:24;;;;;;;14.65;6.53;;;;;;;;;;8326298;28;20066;-69
2021/03/27 11:26:03;;;;;;;35.38;8.90;;;;;;;;;;8324413;28;20485;-69
2021/03/27 11:30:20;;;;;;;41.35;13.48;;;;;;;;;;8325292;28;20409;-70
2021/03/27 11:34:43;;;;;;;21.92;6.65;;;;;;;;;;8324266;28;20485;-70
2021/03/27 11:39:17;;;;;;;18.23;7.95;;;;;;;;;;8325609;28;20352;-69
2021/03/27 11:43:48;;;;;;;25.60;10.55;;;;;;;;;;8315997;28;20493;-69
2021/03/27 11:48:14;;;;;;;17.98;7.85;;;;;;;;;;8325157;28;20312;-69
2021/03/27 11:52:56;;;;;;;24.77;14.70;;;;;;;;;;8324081;28;20504;-69
2021/03/27 11:57:20;;;;;;;20.67;10.13;;;;;;;;;;8323157;28;20483;-69
2021/03/27 12:01:33;;;;;;;35.00;14.93;;;;;;;;;;8325971;28;20416;-69
2021/03/27 12:05:48;;;;;;;53.50;14.90;;;;;;;;;;8324147;28;20475;-70
2021/03/27 12:10:20;;;;;;;26.63;14.35;;;;;;;;;;8322637;28;20165;-69
2021/03/27 12:14:53;;;;;;;33.80;15.10;;;;;;;;;;8322758;28;20082;-68
2021/03/27 12:19:29;;;;;;;25.75;12.10;;;;;;;;;;8325685;28;20382;-69
2021/03/27 12:23:53;;;;;;;13.13;7.45;;;;;;;;;;8322286;28;20161;-69
2021/03/27 12:28:30;;;;;;;15.63;6.93;;;;;;;;;;8322695;28;20055;-69
2021/03/27 12:32:57;;;;;;;14.65;7.13;;;;;;;;;;8324031;28;20070;-69
2021/03/27 12:37:14;;;;;;;12.98;6.85;;;;;;;;;;8323530;28;20036;-69
2021/03/27 12:41:33;;;;;;;24.27;14.30;;;;;;;;;;8324405;28;20442;-69
2021/03/27 12:45:49;;;;;;;14.00;5.85;;;;;;;;;;8322898;28;20963;-70
2021/03/27 12:50:25;;;;;;;17.40;5.78;;;;;;;;;;8322511;28;20486;-69
2021/03/27 12:55:07;;;;;;;12.23;6.18;;;;;;;;;;8322928;28;20074;-70
2021/03/27 12:59:40;;;;;;;14.45;6.20;;;;;;;;;;8322941;28;20468;-69
2021/03/27 13:04:37;;;;;;;16.38;7.50;;;;;;;;;;8281554;28;20466;-69
2021/03/27 13:09:07;;;;;;;23.92;8.65;;;;;;;;;;8322451;28;20375;-69
2021/03/27 13:13:26;;;;;;;13.45;6.47;;;;;;;;;;8322334;28;20489;-69
2021/03/27 13:18:20;;;;;;;17.75;7.30;;;;;;;;;;8323531;28;20371;-68
2021/03/27 13:22:50;;;;;;;24.92;7.95;;;;;;;;;;8323501;28;20468;-69
2021/03/27 13:27:16;;;;;;;14.10;7.55;;;;;;;;;;8324032;28;20093;-68
2021/03/27 13:31:34;;;;;;;17.08;9.13;;;;;;;;;;8322014;28;20455;-71
2021/03/27 13:35:51;;;;;;;22.25;8.65;;;;;;;;;;8324011;28;20375;-68
2021/03/27 13:40:24;;;;;;;14.93;7.90;;;;;;;;;;8323275;28;20370;-68
2021/03/27 13:44:58;;;;;;;16.42;8.35;;;;;;;;;;8316963;28;20505;-69
2021/03/27 13:49:16;;;;;;;23.50;7.53;;;;;;;;;;8321508;28;20336;-69
2021/03/27 13:53:58;;;;;;;10.52;5.22;;;;;;;;;;8322272;28;20070;-69
2021/03/27 13:58:20;;;;;;;12.75;5.63;;;;;;;;;;8270843;28;20366;-67
2021/03/27 14:02:50;;;;;;;14.93;5.40;;;;;;;;;;8327320;28;20386;-68
2021/03/27 14:07:10;;;;;;;9.23;5.32;;;;;;;;;;8327069;28;20355;-68
2021/03/27 14:11:27;;;;;;;11.80;6.82;;;;;;;;;;8327875;28;20489;-68
2021/03/27 14:16:04;;;;;;;15.68;8.82;;;;;;;;;;8326626;28;20106;-69
2021/03/27 14:20:48;;;;;;;47.97;25.42;;;;;;;;;;8328826;28;20465;-69
2021/03/27 14:25:38;;;;;;;40.78;22.45;;;;;;;;;;8328278;28;20439;-68
2021/03/27 14:30:20;;;;;;;119.15;62.90;;;;;;;;;;8330146;28;20490;-68
2021/03/27 14:34:58;;;;;;;123.25;61.13;;;;;;;;;;8329933;28;20478;-68
2021/03/27 14:39:29;;;;;;;76.50;39.42;;;;;;;;;;8325870;28;20378;-68
2021/03/27 14:44:10;;;;;;;69.65;36.80;;;;;;;;;;8327137;28;20430;-69
2021/03/27 14:48:31;;;;;;;50.28;28.88;;;;;;;;;;8313914;28;20370;-68
2021/03/27 14:53:05;;;;;;;92.20;52.80;;;;;;;;;;8322566;28;20475;-69
2021/03/27 14:57:44;;;;;;;57.25;35.42;;;;;;;;;;8301040;28;20372;-69
2021/03/27 15:02:40;;;;;;;31.50;17.70;;;;;;;;;;8293360;28;20044;-68
2021/03/27 15:07:00;;;;;;;55.88;30.42;;;;;;;;;;8311739;28;20060;-68
2021/03/27 15:11:33;;;;;;;38.70;19.83;;;;;;;;;;8325524;28;20354;-68
2021/03/27 15:15:53;;;;;;;30.02;17.20;;;;;;;;;;8325553;28;20502;-68
2021/03/27 15:20:42;;;;;;;17.48;9.50;;;;;;;;;;8325907;28;20373;-71
2021/03/27 15:30:13;;;;;;;16.65;8.95;;;;;;;;;;8325117;28;20388;-68
2021/03/27 15:34:29;;;;;;;18.35;8.20;;;;;;;;;;8325725;28;20376;-68
2021/03/27 15:38:47;;;;;;;13.55;7.13;;;;;;;;;;8325732;28;20063;-68
2021/03/27 15:43:13;;;;;;;10.85;5.72;;;;;;;;;;8324557;28;20044;-69
2021/03/27 15:47:41;;;;;;;10.25;4.35;;;;;;;;;;8323528;28;20505;-70
2021/03/27 15:52:27;;;;;;;10.07;5.80;;;;;;;;;;8325400;28;20584;-69
2021/03/27 15:56:52;;;;;;;9.23;5.03;;;;;;;;;;8323146;28;20074;-70
2021/03/27 16:01:17;;;;;;;14.02;5.57;;;;;;;;;;8324482;28;20078;-70
2021/03/27 16:06:13;;;;;;;15.38;8.43;;;;;;;;;;8323556;28;20479;-70
2021/03/27 16:10:25;;;;;;;11.20;6.95;;;;;;;;;;8302228;28;20447;-71
2021/03/27 16:15:08;;;;;;;14.63;6.70;;;;;;;;;;8323823;28;20394;-70
2021/03/27 16:19:36;;;;;;;17.95;8.88;;;;;;;;;;8302772;28;20463;-70
2021/03/27 16:23:56;;;;;;;;;;;;;;;;;;8323816;28;20413;-68
2021/03/27 16:28:37;;;;;;;18.13;9.80;;;;;;;;;;8323735;28;20265;-71
2021/03/27 16:32:52;;;;;;;14.43;7.38;;;;;;;;;;8322874;28;20492;-68
2021/03/27 16:37:19;;;;;;;14.55;6.93;;;;;;;;;;8323913;28;20052;-69
2021/03/27 16:41:47;;;;;;;13.82;7.72;;;;;;;;;;8321609;28;20398;-71
2021/03/27 16:46:34;;;;;;;;;;;;;;;;;;8323686;28;20466;-71
2021/03/27 16:50:58;;;;;;;18.92;9.73;;;;;;;;;;8318326;28;20255;-71
2021/03/27 16:55:14;;;;;;;45.90;20.80;;;;;;;;;;8322387;28;20571;-70
2021/03/27 16:59:59;;;;;;;45.45;17.70;;;;;;;;;;8324287;28;20464;-70
2021/03/27 17:04:52;;;;;;;17.23;8.40;;;;;;;;;;8309345;28;20466;-71
2021/03/27 17:09:08;;;;;;;23.73;10.13;;;;;;;;;;8302311;28;20056;-71
2021/03/27 17:13:35;;;;;;;22.88;11.73;;;;;;;;;;8322463;28;20078;-71
2021/03/27 17:18:14;;;;;;;19.08;10.88;;;;;;;;;;8322639;28;20458;-70
2021/03/27 17:22:40;;;;;;;22.05;13.13;;;;;;;;;;8323019;28;20352;-71
2021/03/27 17:27:29;;;;;;;30.65;15.52;;;;;;;;;;8319703;28;20479;-71
2021/03/27 17:32:30;;;;;;;59.42;27.88;;;;;;;;;;8321337;28;20161;-71
2021/03/27 17:37:03;;;;;;;76.25;31.83;;;;;;;;;;8323857;28;20386;-71
2021/03/27 17:41:43;;;;;;;60.00;29.95;;;;;;;;;;8327578;28;20375;-71
2021/03/27 17:46:14;;;;;;;125.03;56.65;;;;;;;;;;8325833;28;20482;-71
2021/03/27 17:50:53;;;;;;;57.90;29.20;;;;;;;;;;8327548;28;20466;-71
2021/03/27 17:55:07;;;;;;;150.88;76.70;;;;;;;;;;8328183;28;20117;-71
2021/03/27 17:59:45;;;;;;;96.20;42.78;;;;;;;;;;8327417;28;20098;-71
2021/03/27 18:04:07;;;;;;;57.38;25.80;;;;;;;;;;8326386;28;20392;-71
2021/03/27 18:08:26;;;;;;;38.22;20.40;;;;;;;;;;8327977;28;20040;-72
2021/03/27 18:12:49;;;;;;;40.42;22.40;;;;;;;;;;8326247;28;20474;-72
2021/03/27 18:17:44;;;;;;;69.53;40.95;;;;;;;;;;8328328;28;20450;-72
2021/03/27 18:22:37;;;;;;;193.18;112.07;;;;;;;;;;8309275;28;20455;-71
2021/03/27 18:27:23;;;;;;;49.40;28.20;;;;;;;;;;8252952;28;20048;-71
2021/03/27 18:31:48;;;;;;;68.75;31.45;;;;;;;;;;8313598;28;20439;-71
2021/03/27 18:36:22;;;;;;;81.63;36.28;;;;;;;;;;8327625;28;20478;-75
2021/03/27 18:40:31;;;;;;;102.90;45.25;;;;;;;;;;8329154;28;20454;-74
2021/03/27 18:45:09;;;;;;;154.93;58.55;;;;;;;;;;8327320;28;20103;-72
2021/03/27 18:49:17;;;;;;;140.63;52.85;;;;;;;;;;8309573;28;20044;-72
2021/03/27 18:53:41;;;;;;;199.32;69.50;;;;;;;;;;8325783;28;20449;-72
2021/03/27 18:57:52;;;;;;;114.43;43.92;;;;;;;;;;8326333;28;20379;-72
2021/03/27 19:01:56;;;;;;;84.60;34.00;;;;;;;;;;8326258;28;20474;-72
2021/03/27 19:06:14;;;;;;;86.47;34.38;;;;;;;;;;8326953;28;20332;-72
2021/03/27 19:10:37;;;;;;;79.57;31.95;;;;;;;;;;8324793;28;20513;-72
2021/03/27 19:15:01;;;;;;;44.00;20.33;;;;;;;;;;8324003;28;20342;-72
2021/03/27 19:19:30;;;;;;;48.10;22.02;;;;;;;;;;8325669;28;20463;-72
2021/03/27 19:23:53;;;;;;;98.72;36.95;;;;;;;;;;8326501;28;20458;-72
2021/03/27 19:28:29;;;;;;;212.30;83.75;;;;;;;;;;8326837;28;20442;-72
2021/03/27 19:32:37;;;;;;;174.15;69.22;;;;;;;;;;8325417;28;20071;-73
2021/03/27 19:36:42;;;;;;;83.35;34.60;;;;;;;;;;8324146;28;20389;-73
2021/03/27 19:41:10;;;;;;;50.92;25.38;;;;;;;;;;8323507;28;20091;-73
2021/03/27 19:45:27;;;;;;;42.80;20.73;;;;;;;;;;8325933;28;20471;-73
2021/03/27 19:50:00;;;;;;;55.38;23.63;;;;;;;;;;8322286;28;20052;-73
2021/03/27 19:54:23;;;;;;;78.25;33.72;;;;;;;;;;8324391;28;20461;-73
2021/03/27 19:58:32;;;;;;;134.57;46.90;;;;;;;;;;8325747;28;20344;-73
2021/03/27 20:02:48;;;;;;;125.78;43.92;;;;;;;;;;8324170;28;20447;-73
2021/03/27 20:07:07;;;;;;;60.38;25.02;;;;;;;;;;8322433;28;20412;-73
2021/03/27 20:11:31;;;;;;;48.78;22.05;;;;;;;;;;8323741;28;20059;-73
2021/03/27 20:16:05;;;;;;;39.92;17.50;;;;;;;;;;8323381;28;20052;-72
2021/03/27 20:20:16;;;;;;;36.53;17.63;;;;;;;;;;8309370;28;20405;-73
2021/03/27 20:24:56;;;;;;;46.45;22.92;;;;;;;;;;8322254;28;20478;-72
2021/03/27 20:30:08;;;;;;;44.35;19.85;;;;;;;;;;8323432;28;20501;-71
2021/03/27 20:34:30;;;;;;;36.97;17.35;;;;;;;;;;8298509;28;20461;-71
2021/03/27 20:39:04;;;;;;;37.65;17.92;;;;;;;;;;8323017;28;20473;-71
2021/03/27 20:43:35;;;;;;;37.78;18.50;;;;;;;;;;8304241;28;20075;-71
2021/03/27 20:48:11;;;;;;;57.92;29.27;;;;;;;;;;8323193;28;20074;-70
2021/03/27 20:53:32;;;;;;;58.13;20.50;;;;;;;;;;8309195;28;20470;-71
2021/03/27 20:57:43;;;;;;;85.07;25.33;;;;;;;;;;8272089;28;20497;-71
2021/03/27 21:02:18;;;;;;;161.88;45.72;;;;;;;;;;8324659;28;20451;-71
2021/03/27 21:06:47;;;;;;;15.18;6.53;;;;;;;;;;8321668;28;20040;-72
2021/03/27 21:11:16;;;;;;;24.08;8.43;;;;;;;;;;8318626;28;20462;-72
2021/03/27 21:16:12;;;;;;;39.15;10.57;;;;;;;;;;8322150;28;20052;-73
2021/03/27 21:20:43;;;;;;;11.02;5.38;;;;;;;;;;8320625;28;20478;-72
2021/03/27 21:25:53;;;;;;;27.27;10.05;;;;;;;;;;8309462;28;20463;-72
2021/03/27 21:30:09;;;;;;;37.22;12.38;;;;;;;;;;8324560;28;20067;-71
2021/03/27 21:34:52;;;;;;;38.13;14.45;;;;;;;;;;8322449;28;20348;-72
2021/03/27 21:39:15;;;;;;;71.25;23.58;;;;;;;;;;8321731;28;20782;-72
2021/03/27 21:43:46;;;;;;;16.38;7.35;;;;;;;;;;8323634;28;20044;-73
2021/03/27 21:48:51;;;;;;;10.93;5.47;;;;;;;;;;8321225;28;20500;-72
2021/03/27 21:53:19;;;;;;;9.60;5.93;;;;;;;;;;8294623;28;20074;-72
2021/03/27 21:58:16;;;;;;;44.38;19.80;;;;;;;;;;8321375;28;20066;-72
2021/03/27 22:02:32;;;;;;;23.45;10.63;;;;;;;;;;8320949;28;20052;-72
2021/03/27 22:07:20;;;;;;;19.90;9.40;;;;;;;;;;8320930;28;20354;-73
2021/03/27 22:12:18;;;;;;;25.10;12.20;;;;;;;;;;8323929;28;20477;-73
2021/03/27 22:17:08;;;;;;;17.17;5.70;;;;;;;;;;8317302;28;20037;-74
2021/03/27 22:21:20;;;;;;;9.00;3.97;;;;;;;;;;8306707;28;20070;-74
2021/03/27 22:25:36;;;;;;;9.60;4.05;;;;;;;;;;8325322;28;20364;-75
2021/03/27 22:29:49;;;;;;;9.60;5.30;;;;;;;;;;8310526;28;20493;-72
2021/03/27 22:34:19;;;;;;;20.48;6.97;;;;;;;;;;8328046;28;20052;-72
2021/03/27 22:38:32;;;;;;;34.08;12.75;;;;;;;;;;8326717;28;20470;-72
2021/03/27 22:43:04;;;;;;;51.65;19.48;;;;;;;;;;8327767;28;20388;-72
2021/03/27 22:47:44;;;;;;;35.67;15.45;;;;;;;;;;8317467;28;20386;-72
2021/03/27 22:51:58;;;;;;;35.97;15.13;;;;;;;;;;8324594;28;20509;-71
2021/03/27 22:56:40;;;;;;;36.13;15.73;;;;;;;;;;8326292;28;20482;-72
2021/03/27 23:00:45;;;;;;;27.67;10.98;;;;;;;;;;8325935;28;20478;-73
2021/03/27 23:05:23;;;;;;;18.25;7.85;;;;;;;;;;8326986;28;20074;-72
2021/03/27 23:09:30;;;;;;;13.15;6.80;;;;;;;;;;8310954;28;20071;-72
2021/03/27 23:14:04;;;;;;;17.52;7.80;;;;;;;;;;8328184;28;20500;-71
2021/03/27 23:18:17;;;;;;;29.83;10.70;;;;;;;;;;8326179;28;20391;-72
2021/03/27 23:22:40;;;;;;;24.38;11.63;;;;;;;;;;8327354;28;20475;-72
2021/03/27 23:26:51;;;;;;;51.60;17.60;;;;;;;;;;8324628;28;20056;-72
2021/03/27 23:31:58;;;;;;;49.20;18.02;;;;;;;;;;8326924;28;20474;-72
2021/03/27 23:36:05;;;;;;;25.55;11.38;;;;;;;;;;8223135;28;20415;-73
2021/03/27 23:40:48;;;;;;;20.63;8.75;;;;;;;;;;8281921;28;20486;-71
2021/03/27 23:45:24;;;;;;;13.25;6.05;;;;;;;;;;8302902;28;20076;-71
2021/03/27 23:50:21;;;;;;;7.35;4.30;;;;;;;;;;8322857;28;20340;-71
2021/03/27 23:54:35;;;;;;;9.82;5.20;;;;;;;;;;8293910;28;20365;-71
2021/03/27 23:59:01;;;;;;;17.42;6.78;;;;;;;;;;8324827;28;20343;-71
